Time;durP1;ratioP1;P1;durP2;ratioP2;P2;SDS_P1;SDS_P2;PMS_P1;PMS_P2;Temp;Humidity;BMP_temperature;BMP_pressure;BME280_temperature;BME280_humidity;BME280_pressure;Samples;Min_cycle;Max_cycle;Signal;HPM_P1;HPM_P2
2023/05/23 00:02:19;;;;;;;;;;;;;;;15.84;100.00;101715.78;10543975;28;19928;-65
2023/05/23 00:07:21;;;;;;;;;;;;;;;15.78;100.00;101712.59;10543475;28;20405;-65
2023/05/23 00:12:24;;;;;;;;;;;;;;;15.94;100.00;101722.16;10549822;28;20306;-65
2023/05/23 00:17:26;;;;;;;;;;;;;;;15.90;100.00;101720.66;10567079;28;19931;-65
2023/05/23 00:22:28;;;;;;;;;;;;;;;15.70;100.00;101732.47;10558736;28;19931;-64
2023/05/23 00:27:31;;;;;;;;;;;;;;;15.18;100.00;101719.00;10585712;28;20384;-65
2023/05/23 00:32:34;;;;;;;;;;;;;;;15.28;100.00;101727.19;10563453;28;19933;-65
2023/05/23 00:37:37;;;;;;;;;;;;;;;15.49;100.00;101726.78;10585402;28;20320;-65
2023/05/23 00:42:39;;;;;;;;;;;;;;;15.51;100.00;101728.34;10553393;28;19927;-65
2023/05/23 00:47:41;;;;;;;;;;;;;;;15.35;100.00;101730.28;10571032;28;20388;-65
2023/05/23 00:52:44;;;;;;;;;;;;;;;15.50;100.00;101731.97;10560592;28;20057;-65
2023/05/23 00:57:47;;;;;;;;;;;;;;;15.50;100.00;101736.38;10520001;28;19924;-65
2023/05/23 01:02:50;;;;;;;;;;;;;;;15.38;100.00;101736.22;10566108;28;20363;-65
2023/05/23 01:07:52;;;;;;;;;;;;;;;14.98;100.00;101743.97;10569914;28;19923;-65
2023/05/23 01:12:57;;;;;;;;;;;;;;;15.11;100.00;101748.47;10583692;28;19924;-65
2023/05/23 01:18:06;;;;;;;;;;;;;;;14.88;100.00;101758.66;10567026;28;19950;-65
2023/05/23 01:23:13;;;;;;;;;;;;;;;15.28;100.00;101756.22;10580429;22;20424;-65
2023/05/23 01:28:15;;;;;;;;;;;;;;;15.03;100.00;101762.16;10504939;28;19931;-66
2023/05/23 01:33:18;;;;;;;;;;;;;;;14.94;100.00;101766.16;10518904;28;19924;-66
2023/05/23 01:38:20;;;;;;;;;;;;;;;14.95;100.00;101759.13;10523201;28;19928;-66
2023/05/23 01:43:22;;;;;;;;;;;;;;;14.79;100.00;101757.41;10531173;28;20375;-66
2023/05/23 01:48:24;;;;;;;;;;;;;;;15.00;100.00;101763.16;10516604;28;19931;-65
2023/05/23 01:53:27;;;;;;;;;;;;;;;14.58;100.00;101779.75;10529147;28;20386;-66
2023/05/23 01:58:29;;;;;;;;;;;;;;;14.95;100.00;101777.59;10491332;28;20385;-66
2023/05/23 02:03:31;;;;;;;;;;;;;;;15.00;100.00;101780.78;10508213;28;19931;-66
2023/05/23 02:08:33;;;;;;;;;;;;;;;14.84;100.00;101780.84;10540616;28;20374;-66
2023/05/23 02:13:36;;;;;;;;;;;;;;;14.85;100.00;101782.56;10526514;28;19924;-66
2023/05/23 02:18:38;;;;;;;;;;;;;;;14.42;100.00;101788.50;10540145;28;19931;-66
2023/05/23 02:23:40;;;;;;;;;;;;;;;14.64;100.00;101788.16;10526446;28;19928;-66
2023/05/23 02:28:42;;;;;;;;;;;;;;;14.56;100.00;101786.88;10507258;28;19931;-66
2023/05/23 02:33:45;;;;;;;;;;;;;;;14.43;100.00;101803.41;10479286;28;19947;-66
2023/05/23 02:38:47;;;;;;;;;;;;;;;14.57;100.00;101799.13;10496642;28;20014;-66
2023/05/23 02:43:49;;;;;;;;;;;;;;;14.59;100.00;101805.16;10496606;28;19924;-65
2023/05/23 02:48:51;;;;;;;;;;;;;;;14.78;100.00;101807.59;10497861;28;19924;-66
2023/05/23 02:53:54;;;;;;;;;;;;;;;14.61;100.00;101811.22;10497127;28;19924;-66
2023/05/23 02:58:56;;;;;;;;;;;;;;;14.42;100.00;101806.97;10496125;28;19924;-66
2023/05/23 03:03:58;;;;;;;;;;;;;;;14.65;100.00;101804.81;10497586;28;19924;-66
2023/05/23 03:09:00;;;;;;;;;;;;;;;14.64;100.00;101801.34;10479251;28;19978;-65
2023/05/23 03:14:03;;;;;;;;;;;;;;;14.66;100.00;101817.06;10496739;28;20387;-66
2023/05/23 03:19:05;;;;;;;;;;;;;;;14.60;100.00;101812.16;10495944;28;20298;-66
2023/05/23 03:24:07;;;;;;;;;;;;;;;14.48;100.00;101818.94;10496792;28;19924;-66
2023/05/23 03:29:10;;;;;;;;;;;;;;;14.30;100.00;101824.31;10498488;28;19924;-66
2023/05/23 03:34:12;;;;;;;;;;;;;;;14.63;100.00;101827.78;10503049;28;20280;-66
2023/05/23 03:39:14;;;;;;;;;;;;;;;14.52;100.00;101830.16;10502866;28;20379;-66
2023/05/23 03:44:17;;;;;;;;;;;;;;;14.13;100.00;101829.69;10503598;28;20367;-65
2023/05/23 03:49:19;;;;;;;;;;;;;;;14.46;100.00;101826.94;10503209;28;19924;-66
2023/05/23 03:54:21;;;;;;;;;;;;;;;14.51;100.00;101821.41;10502451;28;20402;-66
2023/05/23 03:59:23;;;;;;;;;;;;;;;14.74;100.00;101833.25;10502692;28;19936;-65
2023/05/23 04:04:26;;;;;;;;;;;;;;;14.57;100.00;101836.00;10502310;28;19925;-66
2023/05/23 04:09:28;;;;;;;;;;;;;;;14.31;100.00;101841.00;10495753;28;20083;-66
2023/05/23 04:14:32;;;;;;;;;;;;;;;14.43;100.00;101844.72;10500903;28;19936;-66
2023/05/23 04:19:34;;;;;;;;;;;;;;;14.62;100.00;101845.38;10501963;28;19932;-66
2023/05/23 04:24:36;;;;;;;;;;;;;;;14.78;100.00;101847.13;10500783;28;20379;-66
2023/05/23 04:29:39;;;;;;;;;;;;;;;15.11;100.00;101859.25;10484580;28;19924;-66
2023/05/23 04:34:43;;;;;;;;;;;;;;;14.96;100.00;101855.72;10491868;28;19929;-66
2023/05/23 04:39:46;;;;;;;;;;;;;;;14.88;100.00;101856.19;10500276;28;19932;-66
2023/05/23 04:44:48;;;;;;;;;;;;;;;14.99;100.00;101866.09;10501565;28;19939;-65
2023/05/23 04:49:52;;;;;;;;;;;;;;;14.64;100.00;101861.09;10483004;28;20395;-66
2023/05/23 04:54:55;;;;;;;;;;;;;;;14.54;100.00;101873.94;10500634;28;20015;-66
2023/05/23 04:59:57;;;;;;;;;;;;;;;14.65;100.00;101878.63;10501031;28;19924;-66
2023/05/23 05:04:59;;;;;;;;;;;;;;;14.75;100.00;101887.69;10499454;28;20290;-66
2023/05/23 05:10:01;;;;;;;;;;;;;;;14.74;100.00;101890.41;10500885;28;19943;-66
2023/05/23 05:15:04;;;;;;;;;;;;;;;14.74;100.00;101899.16;10473074;28;19931;-66
2023/05/23 05:20:07;;;;;;;;;;;;;;;14.36;100.00;101907.44;10499726;28;20294;-66
2023/05/23 05:25:09;;;;;;;;;;;;;;;14.43;100.00;101903.50;10495837;28;21189;-66
2023/05/23 05:30:12;;;;;;;;;;;;;;;14.17;100.00;101909.38;10480309;28;19936;-66
2023/05/23 05:35:14;;;;;;;;;;;;;;;14.17;100.00;101910.25;10493865;28;19928;-65
2023/05/23 05:40:16;;;;;;;;;;;;;;;14.03;100.00;101915.41;10498025;28;19974;-65
2023/05/23 05:45:19;;;;;;;;;;;;;;;13.79;100.00;101934.22;10498234;28;19931;-66
2023/05/23 05:50:21;;;;;;;;;;;;;;;14.03;100.00;101939.94;10498774;28;20015;-65
2023/05/23 05:55:23;;;;;;;;;;;;;;;14.04;100.00;101944.28;10497219;28;19932;-66
2023/05/23 06:00:25;;;;;;;;;;;;;;;14.24;100.00;101960.78;10499062;28;19931;-65
2023/05/23 06:05:28;;;;;;;;;;;;;;;14.06;100.00;101971.38;10490462;28;19947;-65
2023/05/23 06:10:30;;;;;;;;;;;;;;;13.86;100.00;101980.34;10498688;28;19924;-65
2023/05/23 06:15:32;;;;;;;;;;;;;;;13.65;100.00;101979.69;10489937;28;19928;-66
2023/05/23 06:20:34;;;;;;;;;;;;;;;13.82;100.00;101980.56;10498426;28;19925;-66
2023/05/23 06:25:36;;;;;;;;;;;;;;;13.60;100.00;101986.97;10497680;28;19931;-66
2023/05/23 06:30:39;;;;;;;;;;;;;;;14.06;100.00;101989.81;10496535;28;20286;-65
2023/05/23 06:35:41;;;;;;;;;;;;;;;13.92;100.00;101995.81;10496800;28;20410;-65
2023/05/23 06:40:44;;;;;;;;;;;;;;;13.72;100.00;102001.28;10494713;28;19931;-65
2023/05/23 06:45:46;;;;;;;;;;;;;;;13.90;100.00;102012.59;10497199;28;19931;-66
2023/05/23 06:50:48;;;;;;;;;;;;;;;13.44;100.00;102015.81;10496447;28;19928;-65
2023/05/23 06:55:51;;;;;;;;;;;;;;;14.15;100.00;102017.44;10495279;28;19925;-65
2023/05/23 07:00:53;;;;;;;;;;;;;;;13.37;100.00;102015.28;10495150;28;19924;-66
2023/05/23 07:05:55;;;;;;;;;;;;;;;13.48;100.00;102040.19;10501309;28;20018;-65
2023/05/23 07:10:57;;;;;;;;;;;;;;;13.51;97.12;102026.88;10504842;28;20398;-65
2023/05/23 07:16:00;;;;;;;;;;;;;;;13.73;94.06;102026.66;10504144;28;19925;-65
2023/05/23 07:21:02;;;;;;;;;;;;;;;13.90;90.93;102033.66;10505150;28;20011;-65
2023/05/23 07:26:04;;;;;;;;;;;;;;;14.02;86.92;102040.09;10502518;28;20383;-65
2023/05/23 07:31:08;;;;;;;;;;;;;;;13.74;85.80;102050.25;10504328;28;19924;-65
2023/05/23 07:36:10;;;;;;;;;;;;;;;14.38;83.63;102044.34;10502834;28;20385;-65
2023/05/23 07:41:12;;;;;;;;;;;;;;;15.16;79.09;102039.19;10484839;28;19928;-65
2023/05/23 07:46:15;;;;;;;;;;;;;;;15.36;75.38;102035.41;10499819;28;19931;-65
2023/05/23 07:51:20;;;;;;;;;;;;;;;16.75;74.92;102045.56;10499275;28;19935;-66
2023/05/23 07:56:22;;;;;;;;;;;;;;;17.98;69.00;102051.53;10503144;28;19929;-65
2023/05/23 08:01:24;;;;;;;;;;;;;;;18.30;66.80;102053.75;10490251;28;20299;-65
2023/05/23 08:06:27;;;;;;;;;;;;;;;17.79;70.71;102056.41;10501009;28;20402;-65
2023/05/23 08:11:29;;;;;;;;;;;;;;;17.76;68.43;102057.44;10500216;28;19928;-65
2023/05/23 08:16:32;;;;;;;;;;;;;;;17.98;66.39;102059.50;10502562;28;19932;-65
2023/05/23 08:21:35;;;;;;;;;;;;;;;17.80;68.25;102066.03;10501702;28;20382;-65
2023/05/23 08:26:37;;;;;;;;;;;;;;;16.25;69.14;102082.13;10483244;28;19925;-66
2023/05/23 08:31:40;;;;;;;;;;;;;;;16.12;71.41;102082.00;10500799;28;19950;-65
2023/05/23 08:36:42;;;;;;;;;;;;;;;15.33;74.28;102088.34;10499989;28;19928;-65
2023/05/23 08:41:45;;;;;;;;;;;;;;;14.64;77.26;102103.56;10501939;28;19931;-66
2023/05/23 08:46:48;;;;;;;;;;;;;;;15.78;72.33;102098.09;10500902;28;20382;-66
2023/05/23 08:51:51;;;;;;;;;;;;;;;15.92;72.37;102097.28;10493476;28;19967;-65
2023/05/23 08:56:53;;;;;;;;;;;;;;;17.62;70.78;102103.41;10468784;28;20409;-66
2023/05/23 09:01:56;;;;;;;;;;;;;;;18.81;64.30;102097.91;10500406;28;19946;-66
2023/05/23 09:06:58;;;;;;;;;;;;;;;17.32;64.83;102102.78;10500720;28;19925;-65
2023/05/23 09:12:02;;;;;;;;;;;;;;;16.76;68.59;102121.28;10474265;28;19931;-65
2023/05/23 09:17:04;;;;;;;;;;;;;;;16.95;70.88;102119.22;10482889;28;20099;-65
2023/05/23 09:22:06;;;;;;;;;;;;;;;16.54;71.21;102125.25;10500069;28;19924;-65
2023/05/23 09:27:08;;;;;;;;;;;;;;;17.83;68.33;102105.56;10498581;28;20367;-65
2023/05/23 09:32:11;;;;;;;;;;;;;;;18.15;66.94;102121.09;10499267;28;20323;-66
2023/05/23 09:37:17;;;;;;;;;;;;;;;17.60;65.12;102126.50;10481008;28;19932;-66
2023/05/23 09:42:23;;;;;;;;;;;;;;;16.95;65.99;102119.22;10482074;28;19924;-65
2023/05/23 09:47:26;;;;;;;;;;;;;;;17.42;64.45;102135.66;10497051;28;19924;-65
2023/05/23 09:52:34;;;;;;;;;;;;;;;19.11;59.93;102126.72;10481075;28;20015;-66
2023/05/23 09:57:39;;;;;;;;;;;;;;;17.27;62.42;102135.69;10481297;28;19924;-65
2023/05/23 10:02:54;;;;;;;;;;;;;;;17.84;63.20;102136.41;10481230;28;19930;-65
2023/05/23 10:08:01;;;;;;;;;;;;;;;18.12;60.81;102135.41;10498755;28;19977;-66
2023/05/23 10:13:03;;;;;;;;;;;;;;;17.93;61.67;102135.81;10498656;28;20018;-66
2023/05/23 10:18:09;;;;;;;;;;;;;;;17.39;62.74;102127.91;10481076;28;19968;-65
2023/05/23 10:23:12;;;;;;;;;;;;;;;18.87;60.10;102132.00;10497579;28;19932;-66
2023/05/23 10:28:14;;;;;;;;;;;;;;;20.38;56.11;102128.75;10480616;28;20013;-66
2023/05/23 10:33:16;;;;;;;;;;;;;;;19.57;55.90;102126.94;10497410;28;20323;-65
2023/05/23 10:38:33;;;;;;;;;;;;;;;21.04;53.83;102130.66;10482271;28;19924;-66
2023/05/23 10:43:39;;;;;;;;;;;;;;;20.49;52.96;102145.69;10505460;28;19924;-66
2023/05/23 10:48:41;;;;;;;;;;;;;;;20.62;50.37;102135.75;10505809;28;19925;-66
2023/05/23 10:53:44;;;;;;;;;;;;;;;21.18;51.38;102137.53;10498563;28;19931;-65
2023/05/23 10:58:50;;;;;;;;;;;;;;;20.49;50.76;102133.22;10505040;28;19924;-65
2023/05/23 11:03:52;;;;;;;;;;;;;;;20.40;55.18;102120.66;10487811;28;19935;-65
2023/05/23 11:09:09;;;;;;;;;;;;;;;20.19;49.83;102126.69;10505567;28;19931;-66
2023/05/23 11:14:11;;;;;;;;;;;;;;;20.57;51.69;102121.97;10482860;28;19928;-65
2023/05/23 11:19:16;;;;;;;;;;;;;;;20.74;52.28;102118.00;10505042;28;19932;-65
2023/05/23 11:24:19;;;;;;;;;;;;;;;22.25;50.47;102132.22;10486521;28;19929;-65
2023/05/23 11:29:21;;;;;;;;;;;;;;;22.03;48.28;102117.19;10503935;28;20298;-66
2023/05/23 11:34:24;;;;;;;;;;;;;;;22.84;44.83;102119.97;10503774;28;20453;-65
2023/05/23 11:39:26;;;;;;;;;;;;;;;23.80;46.86;102128.22;10486875;28;19931;-66
2023/05/23 11:44:29;;;;;;;;;;;;;;;20.38;47.70;102128.75;10489847;28;20298;-66
2023/05/23 11:49:35;;;;;;;;;;;;;;;20.93;47.96;102128.00;10489744;28;19931;-66
2023/05/23 11:54:38;;;;;;;;;;;;;;;22.61;46.56;102127.31;10486218;28;19925;-66
2023/05/23 11:59:41;;;;;;;;;;;;;;;22.04;45.36;102129.53;10485947;28;19924;-66
2023/05/23 12:04:43;;;;;;;;;;;;;;;21.84;49.11;102129.44;10484964;28;20295;-66
2023/05/23 12:09:45;;;;;;;;;;;;;;;21.69;48.15;102130.72;10508397;28;20337;-66
2023/05/23 12:14:48;;;;;;;;;;;;;;;21.48;46.60;102133.34;10502899;28;19924;-66
2023/05/23 12:19:51;;;;;;;;;;;;;;;22.32;48.68;102141.38;10485049;28;19924;-66
2023/05/23 12:24:54;;;;;;;;;;;;;;;22.67;44.60;102148.16;10501959;28;19928;-66
2023/05/23 12:30:04;;;;;;;;;;;;;;;20.65;48.40;102154.19;10501816;28;19931;-66
2023/05/23 12:35:07;;;;;;;;;;;;;;;19.56;51.60;102150.00;10501526;28;20377;-65
2023/05/23 12:40:13;;;;;;;;;;;;;;;18.99;50.47;102156.78;10501329;28;20409;-66
2023/05/23 12:45:15;;;;;;;;;;;;;;;22.33;48.63;102156.44;10501795;28;19924;-65
2023/05/23 12:50:17;;;;;;;;;;;;;;;20.08;50.75;102155.06;10500916;28;19924;-66
2023/05/23 12:55:20;;;;;;;;;;;;;;;20.13;49.29;102163.53;10494250;28;19931;-65
2023/05/23 13:00:22;;;;;;;;;;;;;;;22.21;47.04;102147.63;10499925;28;19974;-65
2023/05/23 13:05:26;;;;;;;;;;;;;;;21.03;46.63;102155.63;10500433;28;19982;-66
2023/05/23 13:10:28;;;;;;;;;;;;;;;22.31;44.41;102153.06;10500022;28;19928;-66
2023/05/23 13:15:33;;;;;;;;;;;;;;;20.65;47.51;102148.84;10499945;28;20276;-65
2023/05/23 13:20:35;;;;;;;;;;;;;;;22.86;43.63;102158.03;10500503;28;19932;-65
2023/05/23 13:25:37;;;;;;;;;;;;;;;19.73;50.72;102159.38;10499327;28;19924;-65
2023/05/23 13:30:39;;;;;;;;;;;;;;;20.02;49.39;102161.66;10499954;28;19931;-65
2023/05/23 13:35:43;;;;;;;;;;;;;;;20.90;45.76;102158.41;10499250;28;20413;-65
2023/05/23 13:40:45;;;;;;;;;;;;;;;20.21;48.29;102171.75;10535385;22;19977;-64
2023/05/23 13:45:49;;;;;;;;;;;;;;;22.18;45.52;102163.91;10540418;28;20298;-64
2023/05/23 13:50:52;;;;;;;;;;;;;;;21.33;46.74;102159.41;10523259;28;19924;-64
2023/05/23 13:55:54;;;;;;;;;;;;;;;19.88;49.93;102175.16;10523241;28;19929;-64
2023/05/23 14:00:57;;;;;;;;;;;;;;;20.81;46.99;102175.09;10540746;28;20433;-64
2023/05/23 14:05:59;;;;;;;;;;;;;;;19.16;49.38;102184.78;10540153;28;20382;-64
2023/05/23 14:11:01;;;;;;;;;;;;;;;19.43;51.58;102181.94;10540570;28;20014;-63
2023/05/23 14:16:04;;;;;;;;;;;;;;;21.12;47.32;102177.97;10540082;28;20015;-64
2023/05/23 14:21:06;;;;;;;;;;;;;;;19.68;49.24;102173.00;10540290;28;19931;-64
2023/05/23 14:26:08;;;;;;;;;;;;;;;18.07;51.99;102181.72;10539420;28;19934;-64
2023/05/23 14:31:10;;;;;;;;;;;;;;;18.09;52.20;102182.47;10540344;28;20012;-65
2023/05/23 14:36:13;;;;;;;;;;;;;;;19.36;52.95;102188.66;10539208;28;19924;-63
2023/05/23 14:41:17;;;;;;;;;;;;;;;18.97;52.48;102182.59;10539198;28;20006;-63
2023/05/23 14:46:19;;;;;;;;;;;;;;;19.84;49.89;102178.06;10539646;28;19924;-62
2023/05/23 14:51:22;;;;;;;;;;;;;;;19.90;50.30;102178.56;10539780;28;19924;-63
2023/05/23 14:56:43;;;;;;;;;;;;;;;18.29;48.87;102183.75;10539631;28;19928;-63
2023/05/23 15:01:45;;;;;;;;;;;;;;;19.13;51.31;102190.31;10531212;28;19924;-63
2023/05/23 15:06:49;;;;;;;;;;;;;;;19.20;53.12;102188.06;10538879;28;20007;-63
2023/05/23 15:11:51;;;;;;;;;;;;;;;17.33;54.42;102187.38;10538596;28;19931;-63
2023/05/23 15:16:54;;;;;;;;;;;;;;;20.64;49.95;102183.56;10539190;28;19979;-63
2023/05/23 15:21:56;;;;;;;;;;;;;;;19.19;49.93;102186.38;10539112;28;19930;-63
2023/05/23 15:26:59;;;;;;;;;;;;;;;18.67;48.68;102193.53;10543343;28;19930;-63
2023/05/23 15:32:09;;;;;;;;;;;;;;;18.45;51.86;102187.06;10546594;28;19979;-63
2023/05/23 15:37:11;;;;;;;;;;;;;;;18.33;52.94;102191.41;10546214;28;19924;-63
2023/05/23 15:42:13;;;;;;;;;;;;;;;19.81;50.35;102193.38;10546251;28;19928;-63
2023/05/23 15:47:17;;;;;;;;;;;;;;;19.13;49.42;102195.63;10545153;28;19932;-63
2023/05/23 15:52:19;;;;;;;;;;;;;;;18.31;52.43;102208.38;10545751;28;20006;-63
2023/05/23 15:57:22;;;;;;;;;;;;;;;17.45;53.57;102207.78;10542700;28;19928;-63
2023/05/23 16:02:24;;;;;;;;;;;;;;;19.08;49.90;102201.28;10530190;28;20011;-63
2023/05/23 16:07:26;;;;;;;;;;;;;;;18.60;49.90;102202.88;10545100;28;20018;-63
2023/05/23 16:12:29;;;;;;;;;;;;;;;18.78;50.99;102204.25;10544981;28;19931;-63
2023/05/23 16:17:32;;;;;;;;;;;;;;;18.00;48.77;102203.34;10526945;28;19970;-63
2023/05/23 16:22:34;;;;;;;;;;;;;;;18.55;47.64;102205.84;10544196;28;19928;-63
2023/05/23 16:27:36;;;;;;;;;;;;;;;18.87;47.72;102203.63;10544286;28;19924;-63
2023/05/23 16:32:38;;;;;;;;;;;;;;;18.23;52.57;102206.25;10544354;28;19931;-63
2023/05/23 16:37:43;;;;;;;;;;;;;;;16.94;52.68;102206.63;10543495;28;19950;-63
2023/05/23 16:42:45;;;;;;;;;;;;;;;17.05;53.38;102207.66;10543121;28;20379;-63
2023/05/23 16:47:47;;;;;;;;;;;;;;;17.19;52.05;102201.47;10543447;28;19924;-63
2023/05/23 16:52:49;;;;;;;;;;;;;;;17.92;52.14;102199.50;10537710;28;19958;-63
2023/05/23 16:57:52;;;;;;;;;;;;;;;17.27;53.32;102198.38;10514013;28;20001;-63
2023/05/23 17:02:54;;;;;;;;;;;;;;;16.86;53.68;102201.78;10540809;28;19928;-63
2023/05/23 17:07:56;;;;;;;;;;;;;;;16.18;54.04;102199.69;10542635;28;19949;-63
2023/05/23 17:13:00;;;;;;;;;;;;;;;17.29;53.03;102198.25;10541214;28;20416;-63
2023/05/23 17:18:03;;;;;;;;;;;;;;;16.79;53.67;102203.94;10542329;28;19931;-63
2023/05/23 17:23:05;;;;;;;;;;;;;;;17.27;52.21;102201.84;10523550;28;19935;-63
2023/05/23 17:28:07;;;;;;;;;;;;;;;17.14;54.01;102208.84;10538425;28;19931;-64
2023/05/23 17:33:11;;;;;;;;;;;;;;;16.66;54.34;102203.84;10539276;28;20385;-63
2023/05/23 17:38:13;;;;;;;;;;;;;;;16.18;56.05;102205.00;10535029;28;19924;-63
2023/05/23 17:43:15;;;;;;;;;;;;;;;16.60;56.86;102201.56;10531686;28;19934;-63
2023/05/23 17:48:18;;;;;;;;;;;;;;;15.76;56.35;102207.38;10501791;28;20512;-63
2023/05/23 17:53:20;;;;;;;;;;;;;;;15.54;56.98;102229.66;10519613;28;19924;-63
2023/05/23 17:58:22;;;;;;;;;;;;;;;14.40;58.63;102224.28;10532335;28;19924;-63
2023/05/23 18:03:24;;;;;;;;;;;;;;;14.49;58.84;102229.94;10520301;28;20294;-63
2023/05/23 18:08:27;;;;;;;;;;;;;;;15.34;58.71;102235.19;10537835;28;19946;-63
2023/05/23 18:13:29;;;;;;;;;;;;;;;15.05;58.38;102241.13;10538243;28;19924;-63
2023/05/23 18:18:31;;;;;;;;;;;;;;;14.88;58.36;102246.44;10519825;28;19946;-63
2023/05/23 18:23:34;;;;;;;;;;;;;;;15.09;58.97;102249.72;10537479;28;20018;-63
2023/05/23 18:28:36;;;;;;;;;;;;;;;14.36;60.04;102249.09;10539957;28;19932;-63
2023/05/23 18:33:38;;;;;;;;;;;;;;;14.35;60.02;102253.50;10519905;28;19931;-64
2023/05/23 18:38:41;;;;;;;;;;;;;;;13.42;60.79;102257.06;10537096;28;20279;-63
2023/05/23 18:43:43;;;;;;;;;;;;;;;13.67;61.17;102258.56;10538742;28;20020;-63
2023/05/23 18:48:46;;;;;;;;;;;;;;;13.66;60.73;102257.69;10519203;28;19924;-63
2023/05/23 18:53:48;;;;;;;;;;;;;;;13.79;61.09;102260.63;10537180;28;19967;-63
2023/05/23 18:58:50;;;;;;;;;;;;;;;13.37;62.09;102266.97;10536070;28;19932;-63
2023/05/23 19:03:54;;;;;;;;;;;;;;;13.05;62.11;102279.75;10545011;28;20389;-63
2023/05/23 19:08:57;;;;;;;;;;;;;;;13.09;61.92;102283.09;10543832;28;20446;-63
2023/05/23 19:13:59;;;;;;;;;;;;;;;12.62;62.41;102284.22;10545634;28;19924;-63
2023/05/23 19:19:02;;;;;;;;;;;;;;;12.35;63.42;102286.22;10544549;28;19967;-63
2023/05/23 19:24:06;;;;;;;;;;;;;;;12.51;64.00;102296.94;10544600;28;19928;-63
2023/05/23 19:29:08;;;;;;;;;;;;;;;12.54;64.67;102302.94;10545832;28;19935;-63
2023/05/23 19:34:11;;;;;;;;;;;;;;;12.66;65.38;102308.59;10526494;28;19932;-63
2023/05/23 19:39:13;;;;;;;;;;;;;;;12.52;65.09;102310.03;10542552;28;19924;-63
2023/05/23 19:44:16;;;;;;;;;;;;;;;12.20;66.26;102329.72;10509910;28;19932;-63
2023/05/23 19:49:19;;;;;;;;;;;;;;;12.16;66.74;102336.03;10541661;28;19931;-63
2023/05/23 19:54:22;;;;;;;;;;;;;;;12.20;66.67;102325.31;10543094;28;19924;-63
2023/05/23 19:59:25;;;;;;;;;;;;;;;12.12;67.20;102334.41;10543617;28;19932;-63
2023/05/23 20:04:28;;;;;;;;;;;;;;;12.28;67.29;102351.28;10542731;28;20029;-62
2023/05/23 20:09:30;;;;;;;;;;;;;;;11.93;67.55;102358.75;10540689;28;19970;-63
2023/05/23 20:14:33;;;;;;;;;;;;;;;12.11;67.28;102361.59;10541371;28;20321;-63
2023/05/23 20:19:35;;;;;;;;;;;;;;;11.85;68.59;102355.53;10526910;28;19935;-63
2023/05/23 20:24:37;;;;;;;;;;;;;;;11.76;68.12;102374.25;10543825;28;20398;-63
2023/05/23 20:29:40;;;;;;;;;;;;;;;11.50;68.67;102383.94;10543427;28;20045;-63
2023/05/23 20:34:42;;;;;;;;;;;;;;;11.64;68.64;102384.28;10529528;28;19924;-63
2023/05/23 20:39:47;;;;;;;;;;;;;;;11.53;69.80;102384.69;10524896;28;20379;-62
2023/05/23 20:44:49;;;;;;;;;;;;;;;11.48;68.75;102372.63;10526121;28;19974;-63
2023/05/23 20:49:51;;;;;;;;;;;;;;;11.19;69.35;102365.81;10539358;28;20374;-63
2023/05/23 20:54:54;;;;;;;;;;;;;;;11.23;69.70;102375.28;10538231;28;20023;-63
2023/05/23 20:59:57;;;;;;;;;;;;;;;11.13;69.54;102378.22;10539880;28;20003;-63
2023/05/23 21:04:59;;;;;;;;;;;;;;;11.49;69.51;102382.22;10537460;28;19924;-67
2023/05/23 21:10:02;;;;;;;;;;;;;;;11.18;69.78;102369.34;10524309;28;19924;-66
2023/05/23 21:15:04;;;;;;;;;;;;;;;10.83;70.91;102374.88;10524678;28;20015;-67
2023/05/23 21:20:07;;;;;;;;;;;;;;;10.75;71.80;102372.50;10541277;28;19930;-67
2023/05/23 21:25:09;;;;;;;;;;;;;;;10.83;71.65;102371.41;10541260;28;19958;-67
2023/05/23 21:30:11;;;;;;;;;;;;;;;10.67;73.18;102376.28;10524034;28;19931;-66
2023/05/23 21:35:14;;;;;;;;;;;;;;;10.68;73.16;102376.25;10540215;28;19963;-66
2023/05/23 21:40:16;;;;;;;;;;;;;;;10.75;72.42;102374.28;10541147;28;19924;-66
2023/05/23 21:45:18;;;;;;;;;;;;;;;10.63;73.38;102379.94;10541299;28;19924;-67
2023/05/23 21:50:20;;;;;;;;;;;;;;;10.36;74.49;102372.03;10538499;28;19931;-66
2023/05/23 21:55:23;;;;;;;;;;;;;;;10.08;76.02;102372.84;10540053;28;20014;-66
2023/05/23 22:00:26;;;;;;;;;;;;;;;10.08;76.71;102374.59;10540863;28;19928;-67
2023/05/23 22:05:28;;;;;;;;;;;;;;;9.99;78.34;102370.50;10504793;28;19924;-67
2023/05/23 22:10:30;;;;;;;;;;;;;;;9.99;78.29;102373.13;10520423;28;19924;-66
2023/05/23 22:15:34;;;;;;;;;;;;;;;9.96;77.68;102368.84;10538853;28;19931;-67
2023/05/23 22:20:37;;;;;;;;;;;;;;;9.56;79.15;102372.59;10539714;28;19924;-67
2023/05/23 22:25:40;;;;;;;;;;;;;;;9.93;78.60;102379.38;10540104;28;19930;-67
2023/05/23 22:30:42;;;;;;;;;;;;;;;9.94;78.70;102372.41;10539930;28;19932;-66
2023/05/23 22:35:44;;;;;;;;;;;;;;;9.83;78.75;102384.06;10545327;28;19932;-67
2023/05/23 22:40:46;;;;;;;;;;;;;;;9.56;81.51;102388.28;10547214;28;19932;-67
2023/05/23 22:45:49;;;;;;;;;;;;;;;9.53;82.37;102372.69;10548323;28;19932;-67
2023/05/23 22:50:53;;;;;;;;;;;;;;;9.40;83.26;102374.78;10548293;28;19930;-66
2023/05/23 22:55:56;;;;;;;;;;;;;;;9.08;84.69;102370.44;10547198;28;19928;-67
2023/05/23 23:00:58;;;;;;;;;;;;;;;9.16;85.55;102370.19;10547003;28;19938;-66
2023/05/23 23:06:00;;;;;;;;;;;;;;;9.01;84.86;102369.72;10547728;28;19931;-66
2023/05/23 23:11:03;;;;;;;;;;;;;;;8.75;88.12;102362.53;10545750;28;19931;-67
2023/05/23 23:16:05;;;;;;;;;;;;;;;8.74;89.77;102368.63;10513058;28;19931;-66
2023/05/23 23:21:07;;;;;;;;;;;;;;;8.93;87.85;102372.53;10546062;28;19931;-67
2023/05/23 23:26:09;;;;;;;;;;;;;;;8.79;88.30;102376.38;10546890;28;19931;-67
2023/05/23 23:31:12;;;;;;;;;;;;;;;8.90;88.01;102374.34;10528087;28;19925;-67
2023/05/23 23:36:14;;;;;;;;;;;;;;;8.87;88.37;102374.44;10546484;28;20336;-67
2023/05/23 23:41:16;;;;;;;;;;;;;;;8.61;90.67;102375.94;10544932;28;19924;-67
2023/05/23 23:46:19;;;;;;;;;;;;;;;8.76;89.76;102373.81;10545102;28;19924;-66
2023/05/23 23:51:21;;;;;;;;;;;;;;;8.92;89.59;102375.16;10545128;28;19931;-66
2023/05/23 23:56:25;;;;;;;;;;;;;;;8.78;90.71;102378.13;10545638;28;19924;-66
